Time;durP1;ratioP1;P1;durP2;ratioP2;P2;SDS_P1;SDS_P2;PMS_P1;PMS_P2;Temp;Humidity;BMP_temperature;BMP_pressure;BME280_temperature;BME280_humidity;BME280_pressure;Samples;Min_cycle;Max_cycle;Signal;HPM_P1;HPM_P2
2022/08/04 00:02:24;;;;;;;8.80;4.30;;;;;;;18.81;79.02;101089.77;109840;1230;61450;-79
2022/08/04 00:05:04;;;;;;;7.00;4.70;;;;;;;18.76;79.02;101086.77;109953;1229;60033;-79
2022/08/04 00:07:49;;;;;;;5.50;4.30;;;;;;;18.72;78.90;101088.23;109952;1230;62282;-79
2022/08/04 00:10:19;;;;;;;5.00;3.50;;;;;;;18.74;78.66;101087.33;109760;1231;60631;-78
2022/08/04 00:12:51;;;;;;;14.40;4.40;;;;;;;18.71;78.93;101083.87;109626;1232;58708;-79
2022/08/04 00:15:20;;;;;;;6.30;4.30;;;;;;;18.68;79.04;101087.23;109976;1230;63634;-79
2022/08/04 00:18:02;;;;;;;8.30;4.80;;;;;;;18.64;79.30;101088.77;109548;1231;60878;-79
2022/08/04 00:20:33;;;;;;;4.80;4.30;;;;;;;18.63;80.00;101094.92;110358;1230;69898;-79
2022/08/04 00:23:01;;;;;;;7.90;4.40;;;;;;;18.63;80.09;101095.71;110572;1230;73439;-78
2022/08/04 00:25:30;;;;;;;9.20;4.70;;;;;;;18.62;79.50;101091.65;109869;1230;63209;-78
2022/08/04 00:28:03;;;;;;;9.20;4.70;;;;;;;18.61;79.88;101092.46;110119;1230;59800;-78
2022/08/04 00:30:31;;;;;;;6.10;4.40;;;;;;;18.61;80.27;101095.54;109836;1231;75018;-79
2022/08/04 00:32:59;;;;;;;5.80;4.40;;;;;;;18.60;79.59;101090.63;109756;1230;71945;-81
2022/08/04 00:35:28;;;;;;;6.30;4.50;;;;;;;18.54;81.17;101090.31;109881;1229;70503;-80
2022/08/04 00:37:56;;;;;;;6.90;4.80;;;;;;;18.53;81.37;101091.33;110331;1230;73817;-77
2022/08/04 00:40:54;;;;;;;9.90;5.40;;;;;;;18.52;81.44;101089.88;109980;1228;62432;-76
2022/08/04 00:44:18;;;;;;;9.00;4.80;;;;;;;18.49;81.60;101092.81;110125;1228;59784;-78
2022/08/04 00:47:36;;;;;;;8.30;4.50;;;;;;;18.43;81.60;101086.65;109661;1230;75032;-77
2022/08/04 00:50:41;;;;;;;6.70;4.60;;;;;;;18.41;81.81;101087.42;110008;1230;61177;-78
2022/08/04 00:53:34;;;;;;;6.80;4.80;;;;;;;18.37;81.89;101089.75;110148;1230;60002;-78
2022/08/04 00:56:30;;;;;;;5.10;4.60;;;;;;;18.34;82.27;101089.89;109972;1230;73062;-79
2022/08/04 00:59:30;;;;;;;5.90;4.60;;;;;;;18.34;82.26;101090.84;109892;1230;59660;-77
2022/08/04 01:02:07;;;;;;;7.20;4.30;;;;;;;18.33;82.10;101088.62;109951;1230;58838;-75
2022/08/04 01:05:27;;;;;;;5.40;4.50;;;;;;;18.34;82.01;101090.05;110073;1230;63023;-77
2022/08/04 01:08:47;;;;;;;6.20;4.70;;;;;;;18.32;82.11;101093.32;110248;1229;60749;-79
2022/08/04 01:11:48;;;;;;;6.80;5.40;;;;;;;18.26;82.44;101093.29;110079;1231;69655;-80
2022/08/04 01:15:04;;;;;;;8.10;4.90;;;;;;;18.22;82.55;101097.19;110207;1230;73119;-79
2022/08/04 01:17:34;;;;;;;6.00;4.50;;;;;;;18.14;82.96;101097.20;110432;1230;63984;-77
2022/08/04 01:20:19;;;;;;;7.50;4.70;;;;;;;18.09;82.95;101103.48;110417;1230;60805;-78
2022/08/04 01:23:11;;;;;;;6.00;4.90;;;;;;;18.06;83.21;101103.46;110523;1229;74305;-80
2022/08/04 01:26:09;;;;;;;8.70;4.50;;;;;;;18.02;83.23;101101.88;110440;1230;61161;-79
2022/08/04 01:29:08;;;;;;;7.40;5.10;;;;;;;18.00;83.65;101107.38;111129;1230;59404;-79
2022/08/04 01:32:04;;;;;;;6.90;4.50;;;;;;;17.99;83.40;101109.39;111052;1230;73082;-77
2022/08/04 01:35:10;;;;;;;5.50;4.80;;;;;;;17.98;82.75;101108.77;110968;1230;57955;-78
2022/08/04 01:38:07;;;;;;;8.00;4.60;;;;;;;17.96;83.31;101110.40;111148;1230;60280;-78
2022/08/04 01:41:01;;;;;;;6.60;4.90;;;;;;;17.94;83.84;101108.80;111134;1228;63709;-79
2022/08/04 01:43:31;;;;;;;6.50;5.10;;;;;;;17.94;84.00;101111.05;110293;1228;71409;-77
2022/08/04 01:46:03;;;;;;;5.00;4.50;;;;;;;17.96;84.00;101111.42;110239;1228;59812;-78
2022/08/04 01:48:31;;;;;;;6.70;4.70;;;;;;;17.97;84.02;101109.75;110663;1228;62373;-77
2022/08/04 01:51:08;;;;;;;8.20;4.90;;;;;;;17.97;83.89;101111.86;110996;1228;62953;-77
2022/08/04 01:53:42;;;;;;;6.40;4.80;;;;;;;17.96;84.00;101113.34;110798;1228;59480;-77
2022/08/04 01:56:11;;;;;;;9.50;4.80;;;;;;;17.95;83.94;101114.83;111212;1228;63741;-78
2022/08/04 01:58:40;;;;;;;7.60;4.30;;;;;;;17.95;83.82;101112.55;110763;1230;71202;-78
2022/08/04 02:01:12;;;;;;;7.60;4.40;;;;;;;17.96;83.58;101111.42;110997;1230;59719;-78
2022/08/04 02:03:45;;;;;;;7.30;4.70;;;;;;;17.94;83.65;101107.73;110820;1230;62579;-78
2022/08/04 02:06:58;;;;;;;6.10;5.20;;;;;;;17.94;83.45;101108.27;111164;1229;58057;-78
2022/08/04 02:10:01;;;;;;;8.10;4.80;;;;;;;17.93;83.63;101113.87;111316;1230;59583;-79
2022/08/04 02:12:42;;;;;;;9.30;5.00;;;;;;;17.96;83.80;101115.59;110856;1228;62912;-78
2022/08/04 02:15:26;;;;;;;8.50;4.80;;;;;;;18.03;84.01;101113.58;110812;1228;61985;-80
2022/08/04 02:18:24;;;;;;;6.20;4.80;;;;;;;18.08;83.75;101110.27;110319;1228;59569;-79
2022/08/04 02:21:00;;;;;;;8.20;5.40;;;;;;;18.15;83.46;101109.21;110151;1230;63252;-78
2022/08/04 02:23:39;;;;;;;9.60;5.20;;;;;;;18.20;83.03;101108.67;110351;1230;58328;-80
2022/08/04 02:26:17;;;;;;;10.10;5.30;;;;;;;18.25;83.06;101104.38;110047;1230;60352;-78
2022/08/04 02:29:15;;;;;;;7.10;5.00;;;;;;;18.29;82.56;101105.55;109898;1230;74190;-80
2022/08/04 02:31:56;;;;;;;6.80;5.20;;;;;;;18.31;82.76;101101.30;110583;1229;61159;-78
2022/08/04 02:35:04;;;;;;;8.90;5.10;;;;;;;18.36;82.25;101106.45;110248;1230;59631;-81
2022/08/04 02:37:33;;;;;;;6.50;4.80;;;;;;;18.39;82.03;101105.46;110783;1229;73143;-78
2022/08/04 02:40:05;;;;;;;9.40;6.10;;;;;;;18.41;81.85;101103.08;110378;1230;57958;-80
2022/08/04 02:42:33;;;;;;;;;;;;;;;18.41;82.29;101104.52;110546;1228;60238;-78
2022/08/04 02:45:01;;;;;;;5.90;5.20;;;;;;;18.40;82.29;101103.92;110790;1228;64701;-77
2022/08/04 02:47:30;;;;;;;13.70;5.40;;;;;;;18.42;82.57;101107.08;110809;1228;71856;-78
2022/08/04 02:50:19;;;;;;;5.50;4.90;;;;;;;18.47;82.39;101106.03;110503;1229;70444;-80
2022/08/04 02:53:02;;;;;;;6.90;5.00;;;;;;;18.51;82.19;101106.53;110124;1230;73528;-79
2022/08/04 02:55:32;;;;;;;9.10;5.30;;;;;;;18.45;81.75;101092.85;110199;1230;59658;-78
2022/08/04 02:58:03;;;;;;;9.00;5.20;;;;;;;18.53;81.29;101106.12;110897;1230;58035;-80
2022/08/04 03:00:31;;;;;;;6.00;4.80;;;;;;;18.47;81.71;101103.91;110855;1230;63321;-78
2022/08/04 03:03:19;;;;;;;6.20;5.00;;;;;;;18.46;81.72;101106.65;110587;1230;70518;-79
2022/08/04 03:06:05;;;;;;;6.70;4.70;;;;;;;18.45;81.90;101108.83;111019;1228;70088;-79
2022/08/04 03:09:39;;;;;;;8.80;5.30;;;;;;;18.47;81.80;101109.77;110867;1228;73704;-78
2022/08/04 03:13:00;;;;;;;7.50;5.20;;;;;;;18.41;82.91;101106.44;110647;1228;59849;-81
2022/08/04 03:15:59;;;;;;;6.40;5.10;;;;;;;18.42;82.61;101105.45;110386;1228;59394;-78
2022/08/04 03:19:12;;;;;;;11.10;5.80;;;;;;;18.41;82.43;101104.92;110620;1228;72157;-79
2022/08/04 03:22:13;;;;;;;6.60;5.00;;;;;;;18.39;82.95;101107.69;110589;1229;71306;-79
2022/08/04 03:25:31;;;;;;;8.00;5.70;;;;;;;18.42;82.73;101109.74;110397;1229;69942;-79
2022/08/04 03:28:26;;;;;;;9.60;6.10;;;;;;;18.42;83.04;101112.39;110344;1230;63992;-79
2022/08/04 03:31:21;;;;;;;16.70;11.40;;;;;;;18.43;82.93;101111.73;110510;1228;57911;-79
2022/08/04 03:34:25;;;;;;;11.10;5.30;;;;;;;18.46;82.66;101112.13;110526;1228;59524;-80
2022/08/04 03:37:58;;;;;;;8.10;4.80;;;;;;;18.52;81.66;101121.09;110698;1228;74371;-80
2022/08/04 03:40:50;;;;;;;11.60;5.80;;;;;;;18.50;82.64;101121.44;109909;1230;61385;-78
2022/08/04 03:43:36;;;;;;;9.10;5.40;;;;;;;18.54;82.65;101128.08;110262;1228;70903;-78
2022/08/04 03:46:42;;;;;;;15.90;6.10;;;;;;;18.63;82.37;101125.84;110254;1228;74351;-79
2022/08/04 03:49:22;;;;;;;13.30;6.20;;;;;;;18.68;82.46;101123.05;110737;1228;60725;-77
2022/08/04 03:55:40;;;;;;;8.70;5.40;;;;;;;18.83;81.97;101131.44;110755;1228;63307;-79
2022/08/04 03:58:45;;;;;;;11.00;5.50;;;;;;;18.88;81.82;101134.23;110804;1228;60728;-79
2022/08/04 04:02:10;;;;;;;8.40;5.50;;;;;;;18.97;81.62;101133.73;110925;1228;59124;-78
2022/08/04 04:04:55;;;;;;;8.10;5.50;;;;;;;19.08;80.79;101128.88;110751;1230;62420;-79
2022/08/04 04:08:05;;;;;;;7.60;5.00;;;;;;;19.21;80.22;101126.14;110573;1230;57941;-79
2022/08/04 04:10:52;;;;;;;9.50;5.60;;;;;;;19.29;79.71;101127.34;110099;1230;60032;-75
2022/08/04 04:14:15;;;;;;;7.70;6.10;;;;;;;19.34;79.61;101131.70;109123;1231;74391;-74
2022/08/04 04:17:00;;;;;;;11.50;5.50;;;;;;;19.51;78.90;101134.30;109368;1230;62613;-75
2022/08/04 04:19:36;;;;;;;9.00;5.10;;;;;;;19.57;78.58;101131.03;109771;1230;70917;-74
2022/08/04 04:22:33;;;;;;;8.00;5.20;;;;;;;19.62;78.23;101134.98;110251;1228;73007;-75
2022/08/04 04:25:53;;;;;;;7.90;4.20;;;;;;;19.67;77.45;101135.20;109904;1228;59544;-73
2022/08/04 04:29:38;;;;;;;9.20;4.90;;;;;;;19.61;77.60;101136.13;109716;1230;59495;-75
2022/08/04 04:32:31;;;;;;;10.20;4.60;;;;;;;19.62;77.34;101135.87;109095;1236;63731;-78
2022/08/04 04:35:14;;;;;;;8.20;4.40;;;;;;;19.62;77.29;101136.02;109139;1235;70757;-77
2022/08/04 04:37:56;;;;;;;9.40;4.60;;;;;;;19.62;77.39;101137.13;109185;1231;59546;-72
2022/08/04 04:41:03;;;;;;;6.40;5.00;;;;;;;19.68;77.40;101140.55;109315;1230;73328;-75
2022/08/04 04:44:04;;;;;;;8.60;5.00;;;;;;;19.77;77.11;101140.16;109373;1230;60783;-75
2022/08/04 04:46:49;;;;;;;9.00;5.30;;;;;;;19.89;77.06;101141.52;109600;1230;60813;-76
2022/08/04 04:49:45;;;;;;;11.30;4.80;;;;;;;20.03;76.41;101143.58;109536;1230;74139;-75
2022/08/04 04:52:52;;;;;;;7.00;4.80;;;;;;;20.19;76.41;101146.59;109523;1230;72055;-75
2022/08/04 04:55:30;;;;;;;6.20;4.20;;;;;;;20.35;75.38;101146.58;109330;1230;70389;-77
2022/08/04 04:58:00;;;;;;;5.20;3.80;;;;;;;20.37;75.14;101144.53;109995;1228;74410;-77
2022/08/04 05:01:14;;;;;;;8.60;4.30;;;;;;;20.56;73.88;101144.64;110564;1228;60362;-78
2022/08/04 05:04:15;;;;;;;8.10;4.40;;;;;;;20.70;73.38;101144.77;110596;1228;60848;-77
2022/08/04 05:06:55;;;;;;;5.20;4.10;;;;;;;20.76;73.66;101144.61;110422;1228;63414;-79
2022/08/04 05:10:14;;;;;;;12.00;5.30;;;;;;;20.89;72.52;101144.39;110263;1228;446327;-78
2022/08/04 05:13:15;;;;;;;9.00;5.00;;;;;;;20.99;72.31;101142.16;110081;1230;69576;-77
2022/08/04 05:16:16;;;;;;;10.40;4.30;;;;;;;21.21;71.38;101140.20;110555;1228;62876;-73
2022/08/04 05:19:12;;;;;;;6.50;4.60;;;;;;;21.47;70.29;101139.35;111154;1228;61820;-78
2022/08/04 05:21:49;;;;;;;5.00;3.70;;;;;;;21.69;69.64;101137.02;110493;1228;60881;-77
2022/08/04 05:24:22;;;;;;;5.70;4.00;;;;;;;21.86;68.83;101139.62;110558;1230;73032;-79
2022/08/04 05:27:01;;;;;;;8.70;4.20;;;;;;;21.89;68.16;101137.58;110671;1230;61850;-79
2022/08/04 05:29:47;;;;;;;6.90;4.10;;;;;;;22.02;67.98;101137.17;110890;1230;69788;-80
2022/08/04 05:32:16;;;;;;;7.90;4.00;;;;;;;22.09;67.50;101138.10;110858;1230;73548;-79
2022/08/04 05:34:52;;;;;;;6.10;3.80;;;;;;;22.14;67.01;101139.98;111140;1229;61094;-79
2022/08/04 05:37:22;;;;;;;7.70;3.50;;;;;;;22.13;66.81;101140.73;110646;1230;59521;-81
2022/08/04 05:40:02;;;;;;;5.30;3.80;;;;;;;22.18;66.43;101143.42;110418;1229;71885;-71
2022/08/04 05:42:38;;;;;;;6.30;3.60;;;;;;;22.12;66.67;101141.65;109849;1230;62151;-77
2022/08/04 05:45:09;;;;;;;4.80;3.70;;;;;;;22.08;66.60;101142.26;110447;1231;68673;-79
2022/08/04 05:47:37;;;;;;;5.20;3.80;;;;;;;22.20;66.59;101145.60;110153;1231;62891;-79
2022/08/04 05:58:34;;;;;;;8.30;3.80;;;;;;;22.59;65.05;101151.48;111005;1229;74474;-80
2022/08/04 06:01:07;;;;;;;4.40;3.60;;;;;;;22.58;64.69;101149.85;110570;1228;71906;-81
2022/08/04 06:09:10;;;;;;;6.20;4.60;;;;;;;22.38;65.19;101143.40;110593;1236;62644;-80
2022/08/04 06:19:13;;;;;;;7.40;5.00;;;;;;;22.58;65.45;101141.50;109569;1240;58339;-79
2022/08/04 06:23:15;;;;;;;7.80;5.00;;;;;;;22.69;65.65;101137.38;109038;1247;61319;-80
2022/08/04 06:26:00;;;;;;;5.90;4.40;;;;;;;22.82;65.22;101134.79;108988;1245;60896;-79
2022/08/04 06:28:42;;;;;;;7.00;4.50;;;;;;;22.93;64.64;101127.26;108808;1244;73230;-77
2022/08/04 06:31:10;;;;;;;5.80;4.00;;;;;;;23.02;64.90;101127.48;109072;1244;60944;-78
2022/08/04 06:34:37;;;;;;;6.50;4.30;;;;;;;23.12;64.40;101126.14;109451;1244;61236;-79
2022/08/04 06:37:07;;;;;;;6.80;4.10;;;;;;;23.27;63.77;101123.95;109770;1241;63694;-81
2022/08/04 06:44:36;;;;;;;5.80;4.20;;;;;;;23.39;63.24;101128.20;110122;1236;70053;-80
2022/08/04 06:49:07;;;;;;;7.60;3.90;;;;;;;23.45;63.06;101124.00;110575;1235;64210;-78
2022/08/04 06:52:17;;;;;;;5.00;4.20;;;;;;;23.57;62.80;101120.16;110765;1232;58981;-81
2022/08/04 06:55:27;;;;;;;7.20;4.20;;;;;;;23.69;62.61;101110.21;110675;1234;61737;-80
2022/08/04 06:58:02;;;;;;;10.80;4.70;;;;;;;23.93;61.75;101113.81;110139;1236;74972;-80
2022/08/04 07:00:50;;;;;;;6.90;4.00;;;;;;;24.00;61.17;101112.98;109921;1237;63041;-77
2022/08/04 07:03:20;;;;;;;4.80;3.90;;;;;;;24.06;61.01;101113.62;109506;1237;59737;-74
2022/08/04 07:05:50;;;;;;;6.80;4.40;;;;;;;24.08;60.93;101105.71;108749;1238;72635;-76
2022/08/04 07:08:18;;;;;;;6.80;4.70;;;;;;;24.19;60.87;101102.20;108737;1238;59608;-76
2022/08/04 07:10:46;;;;;;;6.80;4.90;;;;;;;24.34;60.04;101103.06;108601;1238;59105;-74
2022/08/04 07:13:16;;;;;;;8.10;4.70;;;;;;;24.39;59.99;101101.34;108818;1238;74424;-77
2022/08/04 07:15:46;;;;;;;7.70;4.20;;;;;;;24.46;59.76;101101.17;108856;1239;61330;-77
2022/08/04 07:18:15;;;;;;;5.20;4.30;;;;;;;24.50;59.52;101102.81;108697;1235;59982;-78
2022/08/04 07:20:45;;;;;;;5.50;4.20;;;;;;;24.57;59.45;101104.55;108989;1233;63243;-78
2022/08/04 07:23:16;;;;;;;4.70;4.10;;;;;;;24.64;58.70;101099.88;109069;1235;59660;-77
2022/08/04 07:25:52;;;;;;;6.20;4.20;;;;;;;24.58;58.56;101098.42;109109;1233;59567;-77
2022/08/04 07:28:41;;;;;;;6.20;4.10;;;;;;;24.48;59.16;101098.08;109094;1233;73687;-77
2022/08/04 07:31:17;;;;;;;4.60;3.90;;;;;;;24.52;58.79;101090.05;109046;1234;63652;-77
2022/08/04 07:34:03;;;;;;;5.90;4.20;;;;;;;24.44;58.89;101098.31;109557;1233;60073;-79
2022/08/04 07:36:54;;;;;;;5.50;4.30;;;;;;;24.55;58.46;101096.52;109622;1235;62605;-77
2022/08/04 07:39:27;;;;;;;6.90;4.50;;;;;;;24.74;58.20;101100.78;109729;1233;60376;-80
2022/08/04 07:42:00;;;;;;;8.00;3.80;;;;;;;24.82;57.30;101093.06;110789;1233;62120;-80
2022/08/04 07:44:36;;;;;;;5.70;4.00;;;;;;;24.82;57.24;101091.80;110795;1232;72226;-78
2022/08/04 07:47:07;;;;;;;5.30;3.90;;;;;;;24.92;57.19;101095.77;110732;1232;62020;-80
2022/08/04 07:49:36;;;;;;;6.00;3.90;;;;;;;24.99;56.81;101086.08;110936;1230;70618;-81
2022/08/04 07:52:27;;;;;;;6.70;4.00;;;;;;;25.16;56.26;101079.20;110827;1228;64159;-78
2022/08/04 07:54:55;;;;;;;7.40;4.10;;;;;;;25.26;55.70;101084.52;110760;1229;57904;-81
2022/08/04 07:57:23;;;;;;;7.50;3.90;;;;;;;25.34;55.37;101086.24;111039;1230;58282;-80
2022/08/04 08:00:13;;;;;;;6.90;3.80;;;;;;;25.33;55.32;101083.52;110695;1230;64051;-79
2022/08/04 08:02:49;;;;;;;6.40;3.90;;;;;;;25.31;55.06;101083.02;110470;1228;71427;-78
2022/08/04 08:05:19;;;;;;;8.30;3.80;;;;;;;25.34;54.95;101079.59;110678;1229;59487;-79
2022/08/04 08:07:50;;;;;;;5.40;3.90;;;;;;;25.40;54.91;101084.19;110684;1230;63389;-79
2022/08/04 08:10:23;;;;;;;7.10;3.90;;;;;;;25.44;54.53;101078.75;110858;1228;60434;-78
2022/08/04 08:12:53;;;;;;;7.40;3.90;;;;;;;25.44;54.87;101078.43;110277;1228;61586;-77
2022/08/04 08:15:22;;;;;;;6.20;3.90;;;;;;;25.51;54.57;101089.53;110635;1228;74804;-79
2022/08/04 08:17:49;;;;;;;8.50;4.50;;;;;;;25.45;54.70;101082.67;110329;1230;61219;-77
2022/08/04 08:20:30;;;;;;;6.40;4.70;;;;;;;25.44;54.90;101082.14;110840;1229;70997;-78
2022/08/04 08:23:02;;;;;;;4.60;4.10;;;;;;;25.52;54.80;101083.73;110933;1229;63520;-75
2022/08/04 08:25:33;;;;;;;5.30;3.40;;;;;;;25.67;54.42;101087.20;110680;1230;60491;-78
2022/08/04 08:28:03;;;;;;;5.60;3.50;;;;;;;25.82;53.23;101084.80;110364;1230;58040;-78
2022/08/04 08:30:33;;;;;;;6.70;4.10;;;;;;;25.83;53.40;101086.04;110291;1230;74395;-78
2022/08/04 08:33:06;;;;;;;4.80;3.20;;;;;;;25.81;53.78;101080.94;111031;1230;73653;-82
2022/08/04 08:36:07;;;;;;;7.90;3.90;;;;;;;25.88;53.71;101083.46;111253;1229;59741;-79
2022/08/04 08:38:46;;;;;;;4.90;3.50;;;;;;;26.01;53.34;101077.64;111283;1230;63382;-78
2022/08/04 08:41:23;;;;;;;5.00;3.40;;;;;;;26.13;53.54;101077.86;110832;1230;59476;-77
2022/08/04 08:44:02;;;;;;;4.90;3.60;;;;;;;26.09;53.03;101089.92;111130;1230;58995;-78
2022/08/04 08:47:07;;;;;;;5.90;4.50;;;;;;;25.96;53.06;101085.50;110323;1230;73853;-78
2022/08/04 08:50:45;;;;;;;6.70;3.80;;;;;;;25.94;53.24;101083.72;110849;1230;62342;-78
2022/08/04 08:54:05;;;;;;;5.60;3.80;;;;;;;26.13;52.71;101084.95;110963;1230;70638;-78
2022/08/04 08:56:51;;;;;;;5.30;3.80;;;;;;;26.13;52.43;101081.61;110833;1229;73552;-81
2022/08/04 09:03:57;;;;;;;7.50;4.00;;;;;;;26.42;52.25;101070.54;111452;1230;60822;-80
2022/08/04 09:07:00;;;;;;;5.30;4.00;;;;;;;26.49;51.58;101077.34;111364;1230;73993;-80
2022/08/04 09:09:36;;;;;;;5.20;3.90;;;;;;;26.68;51.73;101073.83;111226;1229;62138;-80
2022/08/04 09:12:28;;;;;;;5.40;3.70;;;;;;;26.95;50.79;101076.01;111343;1230;69712;-80
2022/08/04 09:15:12;;;;;;;3.70;3.40;;;;;;;27.09;50.31;101072.68;111244;1230;62926;-79
2022/08/04 09:17:58;;;;;;;7.10;3.70;;;;;;;27.23;49.94;101072.39;110866;1231;59186;-79
2022/08/04 09:21:02;;;;;;;5.20;3.80;;;;;;;26.93;50.62;101072.77;110958;1230;58274;-79
2022/08/04 09:23:40;;;;;;;6.30;3.40;;;;;;;27.14;50.33;101071.45;109976;1232;72899;-77
2022/08/04 09:26:23;;;;;;;5.70;3.50;;;;;;;27.24;49.96;101072.11;110700;1231;62753;-80
2022/08/04 09:29:34;;;;;;;5.80;3.60;;;;;;;27.19;49.76;101070.10;110499;1231;70186;-78
2022/08/04 09:32:29;;;;;;;3.90;3.30;;;;;;;26.84;50.11;101072.30;110714;1230;73574;-79
2022/08/04 09:35:33;;;;;;;4.50;3.70;;;;;;;26.84;50.21;101075.15;110546;1230;58345;-81
2022/08/04 09:38:26;;;;;;;5.10;3.60;;;;;;;26.88;50.00;101072.50;110831;1231;60298;-81
2022/08/04 09:41:31;;;;;;;6.60;3.70;;;;;;;26.82;50.29;101067.11;110856;1231;74298;-82
2022/08/04 09:44:43;;;;;;;4.70;3.50;;;;;;;26.94;50.17;101059.80;110597;1230;62038;-80
2022/08/04 09:48:04;;;;;;;5.70;3.60;;;;;;;27.18;49.91;101054.09;110888;1230;69701;-79
2022/08/04 09:50:54;;;;;;;5.10;3.80;;;;;;;27.17;49.50;101060.45;110902;1230;63102;-79
2022/08/04 09:54:06;;;;;;;5.30;3.90;;;;;;;26.97;49.80;101060.73;110574;1231;59657;-78
2022/08/04 10:00:35;;;;;;;5.50;3.50;;;;;;;27.03;49.62;101064.94;111067;1229;64120;-78
2022/08/04 10:03:15;;;;;;;5.50;3.50;;;;;;;27.22;49.29;101068.37;110975;1231;71556;-82
2022/08/04 10:06:28;;;;;;;7.00;3.80;;;;;;;27.17;49.33;101063.19;111175;1229;59706;-82
2022/08/04 10:09:33;;;;;;;5.50;4.10;;;;;;;27.26;49.06;101059.27;111397;1229;62473;-80
2022/08/04 10:12:22;;;;;;;3.90;3.30;;;;;;;27.49;47.84;101057.47;110946;1230;60331;-79
2022/08/04 10:15:58;;;;;;;4.10;3.00;;;;;;;27.63;48.20;101054.77;111418;1228;60720;-80
2022/08/04 10:19:11;;;;;;;5.50;3.30;;;;;;;27.63;47.55;101048.41;111151;1229;64400;-80
2022/08/04 10:22:09;;;;;;;4.90;3.20;;;;;;;27.61;47.28;101044.25;111192;1230;60864;-78
2022/08/04 10:24:59;;;;;;;4.90;3.20;;;;;;;27.59;47.64;101045.42;111576;1229;59202;-79
2022/08/04 10:27:51;;;;;;;4.90;3.70;;;;;;;27.80;46.98;101042.67;111282;1230;63027;-78
2022/08/04 10:30:42;;;;;;;8.80;3.90;;;;;;;27.98;46.81;101045.77;111702;1227;58225;-81
2022/08/04 10:41:19;;;;;;;6.30;3.50;;;;;;;29.08;44.00;101040.75;111487;1227;61253;-80
2022/08/04 10:44:38;;;;;;;5.80;3.30;;;;;;;28.79;44.46;101041.55;111564;1228;70636;-81
2022/08/04 10:47:21;;;;;;;3.50;3.20;;;;;;;28.70;44.61;101040.11;111385;1227;62771;-79
2022/08/04 10:53:19;;;;;;;7.20;3.50;;;;;;;29.50;43.01;101031.04;111022;1232;58048;-80
2022/08/04 10:56:44;;;;;;;6.80;3.30;;;;;;;29.77;42.45;101029.48;110552;1233;63775;-79
2022/08/04 11:04:24;;;;;;;4.30;3.00;;;;;;;29.95;41.85;101034.79;111561;1231;70249;-79
2022/08/04 11:07:38;;;;;;;4.90;3.10;;;;;;;29.77;40.79;101035.31;111207;1227;72905;31
2022/08/04 11:10:09;;;;;;;4.60;3.20;;;;;;;29.25;41.41;101010.84;111349;1228;61352;-76
2022/08/04 11:25:13;;;;;;;5.90;3.00;;;;;;;28.51;43.74;101024.77;111211;1227;70116;31
2022/08/04 11:59:58;;;;;;;9.00;3.70;;;;;;;27.97;46.01;101029.52;111383;1227;62097;-79
2022/08/04 12:15:49;;;;;;;4.50;3.60;;;;;;;28.31;45.49;101020.36;111500;1225;74552;31
2022/08/04 12:27:48;;;;;;;3.80;3.30;;;;;;;31.49;39.03;101002.52;110669;1227;956627;31
2022/08/04 12:30:19;;;;;;;4.60;3.40;;;;;;;31.22;38.55;101021.46;111002;1231;71835;-78
2022/08/04 12:33:31;;;;;;;4.40;3.60;;;;;;;30.00;40.81;101022.27;110883;1231;71141;-78
2022/08/04 12:36:48;;;;;;;12.00;4.10;;;;;;;29.02;45.66;101039.71;110440;1231;62893;-79
2022/08/04 12:39:19;;;;;;;11.30;5.10;;;;;;;26.18;59.95;101045.91;110418;1231;60480;-79
2022/08/04 12:42:13;;;;;;;17.40;5.50;;;;;;;24.09;70.54;101039.58;110632;1231;58113;-77
2022/08/04 12:44:53;;;;;;;9.60;5.70;;;;;;;23.17;77.32;101027.29;110868;1230;64754;-78
2022/08/04 12:47:26;;;;;;;11.80;5.50;;;;;;;22.81;79.66;101029.23;110781;1231;60715;-79
2022/08/04 12:50:08;;;;;;;7.90;5.80;;;;;;;22.61;81.54;101025.02;111150;1231;59322;-77
2022/08/04 12:52:55;;;;;;;9.00;6.10;;;;;;;22.52;83.27;101023.88;111416;1230;73138;-80
2022/08/04 12:55:34;;;;;;;11.50;6.40;;;;;;;22.57;85.75;101020.61;111168;1231;58107;-77
2022/08/04 12:58:12;;;;;;;9.20;6.60;;;;;;;22.67;86.59;101018.72;111013;1231;57744;-76
2022/08/04 13:01:11;;;;;;;8.20;6.30;;;;;;;22.80;87.49;101021.17;111118;1231;74885;-76
2022/08/04 13:04:10;;;;;;;8.70;6.60;;;;;;;23.06;85.76;101018.03;111082;1232;72036;-78
2022/08/04 13:06:40;;;;;;;9.20;6.00;;;;;;;23.25;83.88;101012.08;111160;1233;70691;-83
2022/08/04 13:09:18;;;;;;;15.60;6.70;;;;;;;23.40;80.65;101008.77;111102;1231;64480;-79
2022/08/04 13:12:19;;;;;;;14.20;7.30;;;;;;;23.77;80.30;101010.13;110236;1231;63039;-74
2022/08/04 13:14:52;;;;;;;10.30;6.10;;;;;;;24.64;78.33;101005.20;109605;1231;61074;-72
2022/08/04 13:17:20;;;;;;;8.30;5.40;;;;;;;25.51;74.11;100997.45;109222;1231;64758;-71
2022/08/04 13:19:55;;;;;;;6.20;5.30;;;;;;;26.24;70.79;100991.04;109190;1235;61025;-73
2022/08/04 13:22:26;;;;;;;8.20;4.60;;;;;;;26.52;66.23;100989.14;109033;1232;70560;-73
2022/08/04 13:24:57;;;;;;;9.60;5.60;;;;;;;26.47;65.64;100987.34;109393;1231;74736;-74
2022/08/04 13:27:51;;;;;;;30.50;12.40;;;;;;;26.54;68.11;100989.05;108894;1235;59552;-74
2022/08/04 13:30:27;;;;;;;64.20;20.90;;;;;;;27.28;66.34;100994.24;109109;1234;58285;-75
2022/08/04 13:33:01;;;;;;;33.00;12.60;;;;;;;28.26;61.15;100995.33;109165;1232;74428;-76
2022/08/04 13:35:31;;;;;;;12.10;6.70;;;;;;;29.11;56.57;100994.94;109170;1232;62806;-76
2022/08/04 13:39:18;;;;;;;11.20;5.70;;;;;;;29.53;51.42;100992.66;110698;1229;59125;31
2022/08/04 13:41:52;;;;;;;11.60;6.20;;;;;;;29.63;46.55;100988.09;110406;1232;73233;-82
2022/08/04 13:48:30;;;;;;;6.80;4.00;;;;;;;29.62;45.94;100996.85;111546;1227;58628;-79
2022/08/04 13:51:08;;;;;;;5.80;4.40;;;;;;;29.28;46.01;100999.77;110677;1231;63362;-78
2022/08/04 13:53:40;;;;;;;6.80;4.20;;;;;;;28.56;47.54;101008.08;111321;1230;60863;-78
2022/08/04 13:56:09;;;;;;;;;;;;;;;27.64;52.96;101018.02;111601;1228;59371;-79
2022/08/04 13:58:46;;;;;;;8.40;5.40;;;;;;;26.88;58.19;101020.85;111414;1230;62825;-83
2022/08/04 14:01:25;;;;;;;10.30;5.40;;;;;;;26.65;59.83;101023.98;111524;1229;58030;-81
2022/08/04 14:04:24;;;;;;;8.90;5.40;;;;;;;25.81;64.49;101022.75;111104;1230;59466;-79
2022/08/04 14:07:00;;;;;;;9.30;5.90;;;;;;;25.89;64.28;101023.73;110923;1230;63867;-81
2022/08/04 14:09:32;;;;;;;11.70;5.50;;;;;;;26.08;62.04;101029.96;111479;1229;71294;-80
2022/08/04 14:12:15;;;;;;;6.70;4.80;;;;;;;25.84;62.34;101042.19;110998;1230;60296;-78
2022/08/04 14:15:03;;;;;;;6.20;4.90;;;;;;;25.62;61.79;101061.50;110535;1229;62533;-80
2022/08/04 14:17:31;;;;;;;5.20;4.30;;;;;;;25.01;63.70;101057.27;110832;1230;61178;-78
2022/08/04 14:20:01;;;;;;;6.00;4.20;;;;;;;24.69;65.95;101069.87;110408;1229;59555;-80
2022/08/04 14:22:34;;;;;;;8.20;4.20;;;;;;;23.30;73.58;101078.23;109026;1230;73560;-78
2022/08/04 14:25:10;;;;;;;7.50;4.80;;;;;;;22.47;75.40;101072.46;110067;1229;71904;-79
2022/08/04 14:27:56;;;;;;;6.30;4.80;;;;;;;21.78;78.29;101061.81;111437;1230;69610;-81
2022/08/04 14:31:07;;;;;;;9.40;5.40;;;;;;;21.29;80.23;101055.50;111127;1230;74252;-79
2022/08/04 14:33:41;;;;;;;8.50;5.50;;;;;;;20.98;82.13;101044.64;111292;1230;58143;-81
2022/08/04 14:41:03;;;;;;;9.80;7.80;;;;;;;20.76;87.56;101028.20;111605;1228;62978;-78
2022/08/04 14:43:42;;;;;;;10.10;8.40;;;;;;;20.82;88.71;101026.46;111272;1231;60769;-79
2022/08/04 14:46:11;;;;;;;11.80;8.00;;;;;;;20.92;90.08;101026.40;110680;1231;70042;-80
2022/08/04 14:50:17;;;;;;;8.30;7.30;;;;;;;20.96;91.25;101023.58;110768;1231;62930;-78
2022/08/04 15:04:49;;;;;;;14.50;11.00;;;;;;;21.76;92.88;101010.31;111132;1233;71467;-80
2022/08/04 15:07:18;;;;;;;10.00;7.80;;;;;;;22.01;92.48;101002.66;111113;1233;70040;-82
2022/08/04 15:10:25;;;;;;;11.00;8.10;;;;;;;22.12;91.70;100982.39;110907;1235;63117;-83
2022/08/04 15:12:55;;;;;;;9.60;7.90;;;;;;;22.54;90.97;101009.06;110674;1238;58863;-80